Time;durP1;ratioP1;P1;durP2;ratioP2;P2;SDS_P1;SDS_P2;PMS_P1;PMS_P2;Temp;Humidity;BMP_temperature;BMP_pressure;BME280_temperature;BME280_humidity;BME280_pressure;Samples;Min_cycle;Max_cycle;Signal;HPM_P1;HPM_P2
2021/12/12 00:01:09;;;;;;;5.18;3.58;;;22.10;30.70;;;;;;5077292;28;20072;-65
2021/12/12 00:03:40;;;;;;;6.00;3.58;;;22.10;30.70;;;;;;5084589;28;20560;-64
2021/12/12 00:06:15;;;;;;;4.65;3.53;;;22.10;30.70;;;;;;5070431;28;20041;-65
2021/12/12 00:08:46;;;;;;;5.72;3.92;;;22.10;30.70;;;;;;5084677;28;20143;-64
2021/12/12 00:11:15;;;;;;;;;;;22.10;30.60;;;;;;5084543;28;20542;-65
2021/12/12 00:13:46;;;;;;;4.30;3.22;;;22.10;30.70;;;;;;5086131;28;19921;-66
2021/12/12 00:16:14;;;;;;;5.50;3.47;;;22.10;30.70;;;;;;5070303;28;20056;-66
2021/12/12 00:18:42;;;;;;;4.03;3.22;;;22.10;30.60;;;;;;5083538;28;20131;-65
2021/12/12 00:21:12;;;;;;;5.03;4.10;;;22.00;30.60;;;;;;5070110;28;20055;-64
2021/12/12 00:23:40;;;;;;;4.30;3.70;;;22.00;30.50;;;;;;5072907;28;20109;-65
2021/12/12 00:26:08;;;;;;;4.75;3.75;;;22.00;30.50;;;;;;5055663;28;20052;-65
2021/12/12 00:28:36;;;;;;;5.18;3.90;;;22.00;30.50;;;;;;5071125;28;20564;-65
2021/12/12 00:31:09;;;;;;;4.45;3.50;;;22.00;30.40;;;;;;5070031;28;20087;-65
2021/12/12 00:33:40;;;;;;;5.38;3.72;;;22.00;30.40;;;;;;5072397;28;20048;-66
2021/12/12 00:36:10;;;;;;;5.47;3.42;;;22.00;30.40;;;;;;5056080;28;20462;-64
2021/12/12 00:38:38;;;;;;;6.22;3.75;;;22.00;30.50;;;;;;5071157;28;20076;-64
2021/12/12 00:41:09;;;;;;;5.55;3.58;;;22.00;30.40;;;;;;5069486;28;20121;-64
2021/12/12 00:43:45;;;;;;;6.07;3.97;;;22.00;30.40;;;;;;5072611;28;20411;-64
2021/12/12 00:46:14;;;;;;;5.43;3.70;;;22.00;30.30;;;;;;5056323;28;20053;-66
2021/12/12 00:48:44;;;;;;;4.50;3.42;;;21.90;30.30;;;;;;5071120;28;20496;-64
2021/12/12 00:51:14;;;;;;;4.95;3.33;;;21.90;30.30;;;;;;5069640;28;20044;-66
2021/12/12 00:53:43;;;;;;;4.93;3.70;;;21.90;30.30;;;;;;5072412;28;20052;-64
2021/12/12 00:56:11;;;;;;;6.20;4.20;;;21.90;30.30;;;;;;5054715;28;20053;-66
2021/12/12 00:58:39;;;;;;;4.55;3.60;;;21.90;30.30;;;;;;5070984;28;20133;-66
2021/12/12 01:01:12;;;;;;;4.53;3.38;;;21.90;30.20;;;;;;5069968;28;20048;-65
2021/12/12 01:03:52;;;;;;;4.43;3.28;;;21.90;30.20;;;;;;5072013;28;20531;-65
2021/12/12 01:06:21;;;;;;;4.60;3.15;;;21.90;30.30;;;;;;5055148;28;20117;-65
2021/12/12 01:08:51;;;;;;;6.05;3.67;;;21.90;30.30;;;;;;5070385;28;20080;-65
2021/12/12 01:11:33;;;;;;;7.38;3.30;;;21.90;30.20;;;;;;5069175;28;20044;-65
2021/12/12 01:14:03;;;;;;;3.85;3.40;;;21.90;30.20;;;;;;5069890;28;20044;-67
2021/12/12 01:16:36;;;;;;;4.38;2.92;;;21.90;30.20;;;;;;5061535;28;20127;-64
2021/12/12 01:19:30;;;;;;;4.60;3.20;;;21.90;30.30;;;;;;5068937;28;20053;-68
2021/12/12 01:22:04;;;;;;;5.75;3.65;;;21.90;30.20;;;;;;5070150;28;20048;-64
2021/12/12 01:24:36;;;;;;;6.43;4.43;;;21.90;30.20;;;;;;5064503;28;20040;-65
2021/12/12 01:27:06;;;;;;;5.10;3.63;;;21.80;30.00;;;;;;5060810;28;20417;-64
2021/12/12 01:29:34;;;;;;;7.32;3.75;;;21.80;30.00;;;;;;5069029;28;20139;-64
2021/12/12 01:32:04;;;;;;;5.10;3.60;;;21.80;30.00;;;;;;5069271;28;20132;-65
2021/12/12 01:34:32;;;;;;;4.03;3.47;;;21.80;30.00;;;;;;5066114;28;20489;-65
2021/12/12 01:37:10;;;;;;;5.75;3.92;;;21.90;30.10;;;;;;5061722;28;20114;-66
2021/12/12 01:39:41;;;;;;;3.75;3.38;;;21.90;30.10;;;;;;5068495;28;20151;-65
2021/12/12 01:42:25;;;;;;;4.50;3.42;;;21.90;30.00;;;;;;5058029;28;20041;-68
2021/12/12 01:45:06;;;;;;;4.57;3.88;;;21.80;30.00;;;;;;5046038;28;20079;-65
2021/12/12 01:47:41;;;;;;;5.15;3.90;;;21.80;30.00;;;;;;5066201;28;20078;-65
2021/12/12 01:50:26;;;;;;;3.78;3.10;;;21.80;30.00;;;;;;5068494;28;20197;-66
2021/12/12 01:52:57;;;;;;;4.20;3.55;;;21.80;30.00;;;;;;5070304;28;20090;-66
2021/12/12 01:55:37;;;;;;;5.40;3.47;;;21.80;30.00;;;;;;5072544;28;20094;-65
2021/12/12 01:58:09;;;;;;;5.75;3.70;;;21.80;30.00;;;;;;5110456;28;20040;-64
2021/12/12 02:00:44;;;;;;;5.45;3.35;;;21.80;30.00;;;;;;5108445;28;20048;-65
2021/12/12 02:03:13;;;;;;;4.13;3.30;;;21.80;29.90;;;;;;5093218;28;20044;-64
2021/12/12 02:05:41;;;;;;;4.95;3.95;;;21.80;30.00;;;;;;5094221;28;20079;-64
2021/12/12 02:08:12;;;;;;;4.47;3.28;;;21.80;30.00;;;;;;5110441;28;20043;-66
2021/12/12 02:10:47;;;;;;;4.28;2.90;;;21.80;30.00;;;;;;5108182;28;20143;-64
2021/12/12 02:13:18;;;;;;;5.90;3.75;;;21.80;30.00;;;;;;5111097;28;20412;-67
2021/12/12 02:15:48;;;;;;;4.07;3.10;;;21.80;30.00;;;;;;5092398;28;20087;-65
2021/12/12 02:18:18;;;;;;;4.70;3.70;;;21.80;30.00;;;;;;5108499;28;20051;-64
2021/12/12 02:21:04;;;;;;;;;;;21.80;30.00;;;;;;5070626;28;20128;-64
2021/12/12 02:23:46;;;;;;;4.35;3.40;;;21.80;30.00;;;;;;5090510;28;19920;-65
2021/12/12 02:37:25;;;;;;;5.40;3.45;;;21.80;29.90;;;;;;5085616;28;20136;-65
2021/12/12 02:39:53;;;;;;;4.47;3.20;;;21.80;30.00;;;;;;5070286;28;20123;-65
2021/12/12 02:42:22;;;;;;;4.90;3.45;;;21.80;30.00;;;;;;5089177;28;20127;-68
2021/12/12 02:44:57;;;;;;;8.13;3.22;;;21.70;29.90;;;;;;5064889;28;20083;-66
2021/12/12 02:47:32;;;;;;;4.80;3.30;;;21.80;29.90;;;;;;5085814;28;20048;-64
2021/12/12 02:50:16;;;;;;;4.72;3.75;;;21.80;30.30;;;;;;5070113;28;20044;-64
2021/12/12 02:52:50;;;;;;;3.67;3.08;;;21.70;29.80;;;;;;5089308;28;20048;-65
2021/12/12 02:55:25;;;;;;;4.43;3.08;;;21.70;29.80;;;;;;5079513;28;20048;-65
2021/12/12 02:57:57;;;;;;;6.13;3.80;;;21.70;29.80;;;;;;5089658;28;20048;-65
2021/12/12 03:00:29;;;;;;;5.45;3.97;;;21.70;29.70;;;;;;5088043;28;20079;-66
2021/12/12 03:02:59;;;;;;;4.18;3.40;;;21.70;29.70;;;;;;5089213;28;20048;-64
2021/12/12 03:05:31;;;;;;;4.57;3.28;;;21.70;29.70;;;;;;5076837;28;20051;-64
2021/12/12 03:07:58;;;;;;;4.05;3.20;;;21.70;29.70;;;;;;5088679;28;20094;-64
2021/12/12 03:10:31;;;;;;;4.90;3.78;;;21.70;29.70;;;;;;5087825;28;20048;-65
2021/12/12 03:12:59;;;;;;;5.65;4.15;;;21.70;29.70;;;;;;5089092;28;20543;-65
2021/12/12 03:15:30;;;;;;;8.55;3.72;;;21.60;29.60;;;;;;5076720;28;20083;-66
2021/12/12 03:18:00;;;;;;;3.97;3.25;;;21.60;29.70;;;;;;5071568;28;20469;-65
2021/12/12 03:20:34;;;;;;;4.03;3.17;;;21.60;29.60;;;;;;5088015;28;20044;-65
2021/12/12 03:23:17;;;;;;;4.78;3.40;;;21.60;29.70;;;;;;5089367;28;20075;-64
2021/12/12 03:25:47;;;;;;;5.43;3.53;;;21.70;29.70;;;;;;5075430;28;20503;-65
2021/12/12 03:28:19;;;;;;;7.22;3.35;;;21.60;29.60;;;;;;5088909;28;20543;-64
2021/12/12 03:30:48;;;;;;;3.67;3.10;;;21.60;29.60;;;;;;5087225;28;20455;-65
2021/12/12 03:33:15;;;;;;;4.35;3.40;;;21.60;29.60;;;;;;5089348;28;20083;-66
2021/12/12 03:35:47;;;;;;;4.93;3.50;;;21.60;29.60;;;;;;5075201;28;20056;-65
2021/12/12 03:38:15;;;;;;;4.85;3.35;;;21.60;29.60;;;;;;5088856;28;20136;-64
2021/12/12 03:40:44;;;;;;;3.70;3.35;;;21.60;29.50;;;;;;5087178;28;20096;-65
2021/12/12 03:43:13;;;;;;;4.07;3.17;;;21.60;29.50;;;;;;5089334;28;20044;-64
2021/12/12 03:45:43;;;;;;;4.85;3.45;;;21.60;29.40;;;;;;5073126;28;20076;-67
2021/12/12 03:48:20;;;;;;;3.80;3.22;;;21.60;29.40;;;;;;5088914;28;20056;-65
2021/12/12 03:50:50;;;;;;;3.85;2.90;;;21.60;29.40;;;;;;5087154;28;20090;-64
2021/12/12 03:53:18;;;;;;;4.70;3.17;;;21.60;29.40;;;;;;5089389;28;20076;-66
2021/12/12 03:55:47;;;;;;;3.38;2.92;;;21.60;29.40;;;;;;5064341;28;20048;-65
2021/12/12 03:58:15;;;;;;;3.85;2.85;;;21.60;29.40;;;;;;5093274;28;20075;-65
2021/12/12 04:00:49;;;;;;;4.15;3.40;;;21.60;29.40;;;;;;5091438;28;20084;-66
2021/12/12 04:03:17;;;;;;;5.03;3.47;;;21.60;29.40;;;;;;5093408;28;20040;-65
2021/12/12 04:05:47;;;;;;;4.70;3.13;;;21.50;29.30;;;;;;5081802;28;20141;-63
2021/12/12 04:08:15;;;;;;;;;;;21.60;29.30;;;;;;5075884;28;20082;-64
2021/12/12 04:10:43;;;;;;;4.00;3.17;;;21.60;29.30;;;;;;5091490;28;19938;-66
2021/12/12 04:13:11;;;;;;;4.75;3.25;;;21.50;29.10;;;;;;5092678;28;20052;-65
2021/12/12 04:15:38;;;;;;;4.88;3.40;;;21.50;29.20;;;;;;5080240;28;20139;-65
2021/12/12 04:18:05;;;;;;;6.20;3.35;;;21.50;29.10;;;;;;5092951;28;20048;-66
2021/12/12 04:20:38;;;;;;;4.13;2.88;;;21.50;29.10;;;;;;5073295;28;20083;-67
2021/12/12 04:23:18;;;;;;;5.07;3.35;;;21.50;29.20;;;;;;5092574;28;20076;-65
2021/12/12 04:25:46;;;;;;;5.57;3.08;;;21.50;29.10;;;;;;5079527;28;20131;-65
2021/12/12 04:28:13;;;;;;;4.75;3.28;;;21.50;29.00;;;;;;5074209;28;20087;-65
2021/12/12 04:30:41;;;;;;;4.75;3.22;;;21.40;29.00;;;;;;5091067;28;20044;-65
2021/12/12 04:33:08;;;;;;;8.85;3.08;;;21.40;29.00;;;;;;5092793;28;20071;-65
2021/12/12 04:35:36;;;;;;;4.38;3.13;;;21.40;29.10;;;;;;5076784;28;20107;-64
2021/12/12 04:38:05;;;;;;;3.67;3.03;;;21.40;29.00;;;;;;5092478;28;20436;-64
2021/12/12 04:40:37;;;;;;;4.73;3.80;;;21.40;29.00;;;;;;5091174;28;20102;-66
2021/12/12 04:43:05;;;;;;;4.90;3.53;;;21.40;29.00;;;;;;5092116;28;20044;-65
2021/12/12 04:46:04;;;;;;;3.78;2.95;;;21.40;28.90;;;;;;5077368;28;20263;-63
2021/12/12 04:51:57;;;;;;;4.25;3.38;;;21.40;28.90;;;;;;5090742;28;20048;-66
2021/12/12 04:54:36;;;;;;;5.72;3.50;;;21.40;28.80;;;;;;5072113;28;20381;-64
2021/12/12 04:57:08;;;;;;;6.13;3.28;;;21.30;28.80;;;;;;5082473;28;20139;-64
2021/12/12 04:59:42;;;;;;;5.40;3.47;;;21.30;28.80;;;;;;5090927;28;20078;-64
2021/12/12 05:02:19;;;;;;;4.57;3.58;;;21.30;28.70;;;;;;5091238;28;20135;-66
2021/12/12 05:05:06;;;;;;;5.22;3.45;;;21.30;28.70;;;;;;5084139;28;20052;-64
2021/12/12 05:07:57;;;;;;;4.45;3.05;;;21.30;28.80;;;;;;5088040;28;20144;-65
2021/12/12 05:10:30;;;;;;;;;;;21.30;28.70;;;;;;5090913;28;20089;-64
2021/12/12 05:13:16;;;;;;;8.23;4.05;;;21.30;28.70;;;;;;5091588;28;19931;-67
2021/12/12 05:15:58;;;;;;;4.72;3.50;;;21.20;28.60;;;;;;5079227;28;20083;-65
2021/12/12 05:18:32;;;;;;;5.10;3.42;;;21.20;28.70;;;;;;5091768;28;20067;-64
2021/12/12 05:21:11;;;;;;;5.47;3.47;;;21.20;28.60;;;;;;5089267;28;20067;-64
2021/12/12 05:23:43;;;;;;;4.40;2.60;;;21.20;28.70;;;;;;5091968;28;20074;-65
2021/12/12 05:26:14;;;;;;;4.88;3.42;;;21.20;28.70;;;;;;5079183;28;20047;-65
2021/12/12 05:28:53;;;;;;;5.45;3.13;;;21.20;28.60;;;;;;5091753;28;20052;-65
2021/12/12 05:31:21;;;;;;;4.40;3.13;;;21.20;28.60;;;;;;5089436;28;20047;-65
2021/12/12 05:33:54;;;;;;;4.47;2.53;;;21.20;28.60;;;;;;5091893;28;20048;-66
2021/12/12 05:36:22;;;;;;;6.57;3.30;;;21.20;28.60;;;;;;5079873;28;20134;-64
2021/12/12 05:38:50;;;;;;;7.25;3.20;;;21.20;28.60;;;;;;5091617;28;20079;-66
2021/12/12 05:41:20;;;;;;;5.57;3.20;;;21.20;28.50;;;;;;5089107;28;20052;-64
2021/12/12 05:43:49;;;;;;;3.38;2.47;;;21.20;28.50;;;;;;5091620;28;20456;-65
2021/12/12 05:46:18;;;;;;;3.50;2.95;;;21.20;28.50;;;;;;5079387;28;20455;-67
2021/12/12 05:48:47;;;;;;;5.25;2.95;;;21.20;28.50;;;;;;5091850;28;20043;-65
2021/12/12 05:51:15;;;;;;;3.97;2.53;;;21.20;28.50;;;;;;5088829;28;20048;-64
2021/12/12 05:53:43;;;;;;;5.60;3.03;;;21.20;28.50;;;;;;5073449;28;20127;-65
2021/12/12 05:56:11;;;;;;;11.73;3.25;;;21.20;28.40;;;;;;5079966;28;20055;-65
2021/12/12 05:58:39;;;;;;;3.60;2.85;;;21.20;28.40;;;;;;5091370;28;20184;-64
2021/12/12 06:01:11;;;;;;;9.70;3.20;;;21.20;28.40;;;;;;5088603;28;20109;-65
2021/12/12 06:03:41;;;;;;;5.32;2.97;;;21.20;28.40;;;;;;5091424;28;20103;-65
2021/12/12 06:06:13;;;;;;;2.60;2.40;;;21.20;28.40;;;;;;5079330;28;20043;-65
2021/12/12 06:08:43;;;;;;;8.18;2.75;;;21.20;28.30;;;;;;5091144;28;20277;-65
2021/12/12 06:11:14;;;;;;;5.18;2.42;;;21.20;28.10;;;;;;5088568;28;20221;-65
2021/12/12 06:13:42;;;;;;;3.55;2.35;;;21.20;28.10;;;;;;5091483;28;20109;-66
2021/12/12 06:16:18;;;;;;;3.58;2.47;;;21.20;28.00;;;;;;5077277;28;20080;-65
2021/12/12 06:19:00;;;;;;;3.88;2.38;;;21.20;27.90;;;;;;5090427;28;20079;-64
2021/12/12 06:21:28;;;;;;;2.90;2.22;;;21.20;27.90;;;;;;5088742;28;20127;-64
2021/12/12 06:23:57;;;;;;;3.85;2.10;;;21.30;27.80;;;;;;5090427;28;20048;-68
2021/12/12 06:26:24;;;;;;;3.13;2.28;;;21.30;27.80;;;;;;5063208;28;20466;-65
2021/12/12 06:28:52;;;;;;;3.60;2.58;;;21.30;27.70;;;;;;5091197;28;20412;-66
2021/12/12 06:31:20;;;;;;;2.63;2.35;;;21.30;27.70;;;;;;5088242;28;20095;-64
2021/12/12 06:33:47;;;;;;;2.55;2.35;;;21.30;27.70;;;;;;5090599;28;20480;-65
2021/12/12 06:36:16;;;;;;;3.58;2.40;;;21.30;27.70;;;;;;5077937;28;20083;-65
2021/12/12 06:38:47;;;;;;;2.33;1.98;;;21.20;27.70;;;;;;5090452;28;20044;-65
2021/12/12 06:41:16;;;;;;;2.08;1.88;;;21.20;27.70;;;;;;5087110;28;20130;-65
2021/12/12 06:43:43;;;;;;;5.65;2.55;;;21.20;27.70;;;;;;5090709;28;20087;-64
2021/12/12 06:46:12;;;;;;;4.25;2.30;;;21.20;27.70;;;;;;5077767;28;20075;-65
2021/12/12 06:48:40;;;;;;;2.15;1.95;;;21.20;27.70;;;;;;5072783;28;20048;-66
2021/12/12 06:51:10;;;;;;;3.53;2.00;;;21.10;27.60;;;;;;5087938;28;20127;-65
2021/12/12 06:53:39;;;;;;;3.28;2.22;;;21.10;27.60;;;;;;5090774;28;20072;-65
2021/12/12 06:56:08;;;;;;;2.08;1.83;;;21.10;27.60;;;;;;5079220;28;20139;-66
2021/12/12 06:58:36;;;;;;;2.47;1.70;;;21.10;27.60;;;;;;5090744;28;20165;-65
2021/12/12 07:01:11;;;;;;;2.15;1.70;;;21.10;27.60;;;;;;5087743;28;20504;-66
2021/12/12 07:03:40;;;;;;;2.00;1.80;;;21.10;27.60;;;;;;5073059;28;20051;-65
2021/12/12 07:06:07;;;;;;;3.03;1.55;;;21.10;27.60;;;;;;5075229;28;20130;-66
2021/12/12 07:08:35;;;;;;;4.35;1.65;;;21.20;27.70;;;;;;5090380;28;20122;-64
2021/12/12 07:11:03;;;;;;;2.30;1.70;;;21.20;27.50;;;;;;5087440;28;20560;-69
2021/12/12 07:13:31;;;;;;;2.58;1.92;;;21.20;27.40;;;;;;5090039;28;20080;-64
2021/12/12 07:16:01;;;;;;;1.95;1.80;;;21.20;27.50;;;;;;5080326;28;20083;-66
2021/12/12 07:18:31;;;;;;;2.13;1.88;;;21.20;27.50;;;;;;5072526;28;20083;-66
2021/12/12 07:21:03;;;;;;;5.78;2.42;;;21.30;27.40;;;;;;5087709;28;20079;-64
2021/12/12 07:23:33;;;;;;;2.05;1.77;;;21.30;27.30;;;;;;5090010;28;20087;-64
2021/12/12 07:26:03;;;;;;;3.60;1.60;;;21.30;27.30;;;;;;5077851;28;20048;-64
2021/12/12 07:28:31;;;;;;;1.98;1.70;;;21.40;27.20;;;;;;5090019;28;20052;-65
2021/12/12 07:31:05;;;;;;;1.98;1.75;;;21.50;27.20;;;;;;5091100;28;20048;-64
2021/12/12 07:33:33;;;;;;;1.55;1.45;;;21.60;27.20;;;;;;5094020;28;20165;-65
2021/12/12 07:36:05;;;;;;;1.90;1.60;;;21.60;27.10;;;;;;5081992;28;20081;-65
2021/12/12 07:38:33;;;;;;;1.75;1.60;;;21.70;27.00;;;;;;5060527;28;20373;-64
2021/12/12 07:41:03;;;;;;;1.90;1.63;;;21.80;27.00;;;;;;5091443;28;20044;-64
2021/12/12 07:43:31;;;;;;;2.22;2.03;;;21.80;26.90;;;;;;5093966;28;20067;-65
2021/12/12 07:46:00;;;;;;;2.13;1.85;;;21.90;26.90;;;;;;5080445;28;20500;-64
2021/12/12 07:48:28;;;;;;;1.60;1.50;;;22.00;26.80;;;;;;5093848;28;20098;-65
2021/12/12 07:50:56;;;;;;;1.60;1.50;;;22.00;26.80;;;;;;5092018;28;20160;-66
2021/12/12 07:53:25;;;;;;;1.65;1.50;;;22.10;26.70;;;;;;5093765;28;20040;-65
2021/12/12 07:55:54;;;;;;;4.32;1.25;;;22.20;26.70;;;;;;5066060;28;20471;-65
2021/12/12 07:58:24;;;;;;;1.75;1.60;;;22.20;26.60;;;;;;5093859;28;20433;-64
2021/12/12 08:00:55;;;;;;;1.52;1.30;;;22.30;26.50;;;;;;5091417;28;20531;-65
2021/12/12 08:03:27;;;;;;;1.50;1.40;;;22.30;26.40;;;;;;5093761;28;20072;-66
2021/12/12 08:05:56;;;;;;;2.53;1.45;;;22.30;26.30;;;;;;5080429;28;20083;-64
2021/12/12 08:08:24;;;;;;;2.83;1.30;;;22.30;26.30;;;;;;5093127;28;20076;-64
2021/12/12 08:10:53;;;;;;;1.73;1.42;;;22.40;26.30;;;;;;5091419;28;20094;-65
2021/12/12 08:13:20;;;;;;;1.67;1.58;;;22.40;26.20;;;;;;5092914;28;20040;-65
2021/12/12 08:15:48;;;;;;;1.33;1.23;;;22.50;26.20;;;;;;5083485;28;20044;-65
2021/12/12 08:18:18;;;;;;;1.52;1.42;;;22.50;26.10;;;;;;5092750;28;20076;-64
2021/12/12 08:20:47;;;;;;;1.50;1.40;;;22.60;26.20;;;;;;5073697;28;20047;-64
2021/12/12 08:23:16;;;;;;;1.63;1.40;;;22.60;26.10;;;;;;5092512;28;20048;-64
2021/12/12 08:25:45;;;;;;;1.42;1.33;;;22.60;26.00;;;;;;5086155;28;20044;-63
2021/12/12 08:28:14;;;;;;;1.70;1.33;;;22.70;26.10;;;;;;5093718;28;20157;-65
2021/12/12 08:30:43;;;;;;;1.88;1.60;;;22.70;25.90;;;;;;5073323;28;20086;-64
2021/12/12 08:33:12;;;;;;;2.35;1.45;;;22.70;25.90;;;;;;5092107;28;20050;-65
2021/12/12 08:35:41;;;;;;;1.70;1.60;;;22.80;25.90;;;;;;5086662;28;20133;-64
2021/12/12 08:38:11;;;;;;;1.77;1.20;;;22.80;25.80;;;;;;5092884;28;20551;-66
2021/12/12 08:40:47;;;;;;;1.50;1.40;;;22.80;25.80;;;;;;5073075;28;20052;-65
2021/12/12 08:43:16;;;;;;;1.45;1.35;;;22.80;25.70;;;;;;5092374;28;20480;-64
2021/12/12 08:45:48;;;;;;;1.83;1.73;;;22.80;25.70;;;;;;5084930;28;20044;-65
2021/12/12 08:48:17;;;;;;;1.52;1.35;;;22.90;25.70;;;;;;5092294;28;20103;-65
2021/12/12 08:50:47;;;;;;;1.60;1.38;;;22.90;25.70;;;;;;5090417;28;20527;-64
2021/12/12 08:53:17;;;;;;;1.33;1.13;;;22.90;25.60;;;;;;5092109;28;20044;-65
2021/12/12 08:55:50;;;;;;;1.40;1.30;;;22.90;25.60;;;;;;5085053;28;20052;-65
2021/12/12 08:58:21;;;;;;;1.75;1.30;;;23.00;25.70;;;;;;5092443;28;20090;-64
2021/12/12 09:00:54;;;;;;;1.60;1.50;;;23.00;25.60;;;;;;5090697;28;20453;-66
2021/12/12 09:03:32;;;;;;;1.40;1.00;;;23.00;25.60;;;;;;5092190;28;20044;-65
2021/12/12 09:05:59;;;;;;;2.22;1.33;;;23.10;25.60;;;;;;5083017;28;20212;-64
2021/12/12 09:08:57;;;;;;;1.58;1.45;;;23.10;25.60;;;;;;5092137;28;20055;-67
2021/12/12 09:11:47;;;;;;;1.52;1.42;;;23.00;25.50;;;;;;5090967;28;20051;-65
2021/12/12 09:14:20;;;;;;;;;;;23.00;25.50;;;;;;5090281;28;20047;-64
2021/12/12 09:17:15;;;;;;;2.05;1.60;;;23.10;25.50;;;;;;5088512;28;20026;-66
2021/12/12 09:19:49;;;;;;;1.67;1.45;;;23.10;25.50;;;;;;5078842;28;20116;-64
2021/12/12 09:22:26;;;;;;;1.48;1.38;;;23.10;25.50;;;;;;5090487;28;20455;-64
2021/12/12 09:25:11;;;;;;;1.60;1.40;;;23.10;25.40;;;;;;5085545;28;20131;-66
2021/12/12 09:27:44;;;;;;;1.90;1.20;;;23.10;25.40;;;;;;5089725;28;20094;-64
2021/12/12 09:30:16;;;;;;;1.50;1.40;;;23.10;25.30;;;;;;5091644;28;20217;-65
2021/12/12 09:33:04;;;;;;;1.60;1.50;;;23.10;25.30;;;;;;5090901;28;20554;-64
2021/12/12 09:35:42;;;;;;;1.58;1.33;;;23.10;25.40;;;;;;5083873;28;20127;-68
2021/12/12 09:38:25;;;;;;;2.08;1.63;;;23.10;25.40;;;;;;5091933;28;20135;-66
2021/12/12 09:41:23;;;;;;;2.03;1.50;;;23.10;25.30;;;;;;5091456;28;20052;-65
2021/12/12 09:44:15;;;;;;;1.40;1.30;;;23.10;25.30;;;;;;5091592;28;20048;-65
2021/12/12 09:47:26;;;;;;;1.90;1.42;;;23.10;25.30;;;;;;5085504;28;20463;-65
2021/12/12 09:53:28;;;;;;;1.48;1.38;;;23.10;25.20;;;;;;5090026;28;20040;-64
2021/12/12 09:56:22;;;;;;;2.85;1.42;;;23.10;25.20;;;;;;5083444;28;20458;-65
2021/12/12 09:59:23;;;;;;;1.50;1.40;;;23.10;25.20;;;;;;5091767;28;20051;-65
2021/12/12 10:02:27;;;;;;;1.80;1.70;;;23.20;25.30;;;;;;5090275;28;20044;-65
2021/12/12 10:05:24;;;;;;;2.08;1.55;;;23.20;25.20;;;;;;5086073;28;20098;-65
2021/12/12 10:08:26;;;;;;;1.42;1.33;;;23.20;25.20;;;;;;5091097;28;20044;-66
2021/12/12 10:11:01;;;;;;;1.45;1.35;;;23.20;25.10;;;;;;5090602;28;20135;-65
2021/12/12 10:13:42;;;;;;;1.85;1.60;;;23.20;25.10;;;;;;5090842;28;20102;-65
2021/12/12 10:16:38;;;;;;;1.40;1.25;;;23.30;25.10;;;;;;5082065;28;20044;-64
2021/12/12 10:19:45;;;;;;;1.50;1.38;;;23.30;25.10;;;;;;5090583;28;20040;-65
2021/12/12 10:22:41;;;;;;;1.60;1.50;;;23.20;25.00;;;;;;5089577;28;20094;-65
2021/12/12 10:25:14;;;;;;;1.35;1.25;;;23.20;24.90;;;;;;5083720;28;20067;-64
2021/12/12 10:27:58;;;;;;;2.13;1.85;;;23.30;25.00;;;;;;5088826;28;20592;-65
2021/12/12 10:30:33;;;;;;;1.60;1.50;;;23.30;24.90;;;;;;5090604;28;20133;-66
2021/12/12 10:33:23;;;;;;;1.90;1.70;;;23.30;25.00;;;;;;5090276;28;20135;-65
2021/12/12 10:36:10;;;;;;;1.40;1.30;;;23.20;24.90;;;;;;5069648;28;20075;-64
2021/12/12 10:39:00;;;;;;;2.33;1.67;;;23.30;24.90;;;;;;5090807;28;20048;-65
2021/12/12 10:41:36;;;;;;;0.90;0.90;;;23.30;25.30;;;;;;5089571;28;20135;-64
2021/12/12 10:44:13;;;;;;;1.48;1.38;;;23.30;24.90;;;;;;5090341;28;20051;-65
2021/12/12 10:47:20;;;;;;;1.63;1.40;;;23.30;24.80;;;;;;5084837;28;20080;-65
2021/12/12 10:50:18;;;;;;;1.35;1.23;;;23.30;24.80;;;;;;5075673;28;20044;-65
2021/12/12 10:52:53;;;;;;;1.15;1.13;;;23.40;24.80;;;;;;5089894;28;20060;-65
2021/12/12 10:55:53;;;;;;;1.23;1.13;;;23.40;24.80;;;;;;5083632;28;20401;-67
2021/12/12 10:58:28;;;;;;;1.00;1.00;;;23.40;24.80;;;;;;5090659;28;20048;-66
2021/12/12 11:01:01;;;;;;;1.27;1.27;;;23.40;24.70;;;;;;5088985;28;20441;-64
2021/12/12 11:03:34;;;;;;;1.17;1.13;;;23.50;24.70;;;;;;5090192;28;20052;-64
2021/12/12 11:06:15;;;;;;;1.20;1.20;;;23.50;24.70;;;;;;5083534;28;20080;-65
2021/12/12 11:09:07;;;;;;;2.40;1.40;;;23.50;24.60;;;;;;5090088;28;20109;-66
2021/12/12 11:11:44;;;;;;;1.25;1.10;;;23.50;24.60;;;;;;5074399;28;20044;-65
2021/12/12 11:14:28;;;;;;;3.38;1.50;;;23.50;24.60;;;;;;5087435;28;20040;-67
2021/12/12 11:17:12;;;;;;;1.30;1.20;;;23.50;24.50;;;;;;5085341;28;20091;-65
2021/12/12 11:19:51;;;;;;;1.48;1.23;;;23.50;24.50;;;;;;5090420;28;20044;-66
2021/12/12 11:22:29;;;;;;;1.17;1.08;;;23.50;24.50;;;;;;5071607;28;20125;-65
2021/12/12 11:25:08;;;;;;;1.40;1.30;;;23.50;24.40;;;;;;5085742;28;20075;-64
2021/12/12 11:27:54;;;;;;;1.00;0.90;;;23.50;24.40;;;;;;5088428;28;20556;-65
2021/12/12 11:30:31;;;;;;;1.58;0.88;;;23.50;24.40;;;;;;5089906;28;20050;-65
2021/12/12 11:33:03;;;;;;;1.05;0.95;;;23.50;24.30;;;;;;5089638;28;20097;-67
2021/12/12 11:35:31;;;;;;;0.80;0.80;;;23.50;24.30;;;;;;5064175;28;20135;-65
2021/12/12 11:38:35;;;;;;;0.80;0.80;;;23.50;24.40;;;;;;5072102;28;20110;-65
2021/12/12 11:41:31;;;;;;;0.93;0.93;;;23.60;24.40;;;;;;5076980;28;20094;-65
2021/12/12 11:44:19;;;;;;;1.75;1.65;;;23.60;24.40;;;;;;5089217;28;20439;-65
2021/12/12 11:47:28;;;;;;;1.13;0.82;;;23.60;24.40;;;;;;5085207;28;20051;-65
2021/12/12 11:50:10;;;;;;;1.45;1.05;;;23.60;24.30;;;;;;5089720;28;20536;-64
2021/12/12 11:52:51;;;;;;;1.38;1.13;;;23.60;24.30;;;;;;5089281;28;20647;-65
2021/12/12 11:55:28;;;;;;;3.67;1.10;;;23.70;24.40;;;;;;5081692;28;20455;-67
2021/12/12 11:58:34;;;;;;;1.30;0.90;;;23.70;24.30;;;;;;5089965;28;20502;-66
2021/12/12 12:01:27;;;;;;;1.13;1.02;;;23.70;24.30;;;;;;5088917;28;20076;-66
2021/12/12 12:04:32;;;;;;;1.13;1.13;;;23.70;24.30;;;;;;5089493;28;20052;-66
2021/12/12 12:07:24;;;;;;;1.10;1.02;;;23.70;24.30;;;;;;5085221;28;20123;-65
2021/12/12 12:10:11;;;;;;;1.27;1.17;;;23.60;24.20;;;;;;5089795;28;20051;-66
2021/12/12 12:13:11;;;;;;;0.93;0.93;;;23.60;24.20;;;;;;5088068;28;20047;-65
2021/12/12 12:15:59;;;;;;;1.20;1.10;;;23.60;24.20;;;;;;5083279;28;20301;-65
2021/12/12 12:19:01;;;;;;;1.02;0.90;;;23.60;24.20;;;;;;5093624;28;20040;-64
2021/12/12 12:22:05;;;;;;;1.25;1.15;;;23.60;24.20;;;;;;5092333;28;20044;-65
2021/12/12 12:24:42;;;;;;;0.88;0.80;;;23.60;24.30;;;;;;5090871;28;20138;-64
2021/12/12 12:27:34;;;;;;;1.00;0.90;;;23.60;24.30;;;;;;5073500;28;20118;-64
2021/12/12 12:30:40;;;;;;;0.93;0.93;;;23.60;24.30;;;;;;5093129;28;20094;-65
2021/12/12 12:33:47;;;;;;;1.08;0.93;;;23.60;24.20;;;;;;5077548;28;20114;-64
2021/12/12 12:36:54;;;;;;;0.77;0.77;;;23.60;24.20;;;;;;5072757;28;20110;-65
2021/12/12 12:40:01;;;;;;;1.83;1.02;;;23.60;24.20;;;;;;5078207;28;20075;-65
2021/12/12 12:43:08;;;;;;;0.93;0.85;;;23.70;24.20;;;;;;5079621;28;20048;-66
2021/12/12 12:46:14;;;;;;;0.82;0.80;;;23.60;24.20;;;;;;5084596;28;20476;-65
2021/12/12 12:49:21;;;;;;;0.90;0.90;;;23.70;24.20;;;;;;5093130;28;20044;-66
2021/12/12 12:52:21;;;;;;;1.15;0.90;;;23.70;24.20;;;;;;5091755;28;20056;-65
2021/12/12 12:55:29;;;;;;;2.80;0.90;;;23.70;24.10;;;;;;5087713;28;20127;-65
2021/12/12 12:58:17;;;;;;;0.75;0.75;;;23.70;24.10;;;;;;5093064;28;20132;-66
2021/12/12 13:00:47;;;;;;;2.20;0.95;;;23.70;24.10;;;;;;5092243;28;20114;-65
2021/12/12 13:03:40;;;;;;;0.80;0.80;;;23.70;24.10;;;;;;5092099;28;20040;-65
2021/12/12 13:06:46;;;;;;;0.63;0.60;;;23.70;24.10;;;;;;5084045;28;20083;-66
2021/12/12 13:09:23;;;;;;;0.70;0.70;;;23.70;24.10;;;;;;5092463;28;20052;-65
2021/12/12 13:12:30;;;;;;;1.95;0.80;;;23.70;24.10;;;;;;5091019;28;20048;-64
2021/12/12 13:15:25;;;;;;;1.20;0.80;;;23.70;24.10;;;;;;5087404;28;20548;-65
2021/12/12 13:18:32;;;;;;;0.80;0.80;;;23.70;24.10;;;;;;5092279;28;20408;-66
2021/12/12 13:21:36;;;;;;;0.65;0.60;;;23.70;24.00;;;;;;5091421;28;20488;-65
2021/12/12 13:24:28;;;;;;;0.88;0.73;;;23.70;24.00;;;;;;5090585;28;20561;-67
2021/12/12 13:27:32;;;;;;;1.10;0.60;;;23.70;24.10;;;;;;5087688;28;20052;-65
2021/12/12 13:30:12;;;;;;;0.70;0.70;;;23.70;24.00;;;;;;5092252;28;20226;-65
2021/12/12 13:33:04;;;;;;;1.00;0.90;;;23.70;24.00;;;;;;5091148;28;20083;-63
2021/12/12 13:35:42;;;;;;;0.55;0.55;;;23.70;24.00;;;;;;5082497;28;20082;-67
2021/12/12 13:38:30;;;;;;;1.05;0.70;;;23.70;24.00;;;;;;5073634;28;20075;-65
2021/12/12 13:41:12;;;;;;;0.60;0.60;;;23.70;24.00;;;;;;5091380;28;20477;-66
2021/12/12 13:44:19;;;;;;;1.02;0.75;;;23.70;24.00;;;;;;5091761;28;20094;-65
2021/12/12 13:47:18;;;;;;;0.90;0.90;;;23.70;24.00;;;;;;5085682;28;20047;-65
2021/12/12 13:50:11;;;;;;;1.17;0.60;;;23.70;24.00;;;;;;5091968;28;20062;-66
2021/12/12 13:53:02;;;;;;;1.02;0.73;;;23.70;24.00;;;;;;5075352;28;20052;-66
2021/12/12 13:56:07;;;;;;;0.80;0.80;;;23.70;24.00;;;;;;5085128;28;20485;-66
2021/12/12 13:58:53;;;;;;;0.70;0.70;;;23.70;24.00;;;;;;5075047;28;20079;-66